sensor_id;sensor_type;location;lat;lon;timestamp;P1;durP1;ratioP1;P2;durP2;ratioP2
11767;SDS011;5941;57.652;12.514;2023-05-10T00:02:13;170.63;;;164.27;;
11767;SDS011;5941;57.652;12.514;2023-05-10T00:04:39;151.80;;;146.13;;
11767;SDS011;5941;57.652;12.514;2023-05-10T00:07:05;158.07;;;152.37;;
11767;SDS011;5941;57.652;12.514;2023-05-10T00:09:31;154.67;;;149.07;;
11767;SDS011;5941;57.652;12.514;2023-05-10T00:11:57;157.63;;;151.90;;
11767;SDS011;5941;57.652;12.514;2023-05-10T00:14:23;167.97;;;161.77;;
11767;SDS011;5941;57.652;12.514;2023-05-10T00:16:49;146.37;;;141.03;;
11767;SDS011;5941;57.652;12.514;2023-05-10T00:19:15;175.00;;;168.70;;
11767;SDS011;5941;57.652;12.514;2023-05-10T00:21:41;166.77;;;160.47;;
11767;SDS011;5941;57.652;12.514;2023-05-10T00:24:07;151.03;;;145.37;;
11767;SDS011;5941;57.652;12.514;2023-05-10T00:26:33;169.07;;;162.77;;
11767;SDS011;5941;57.652;12.514;2023-05-10T00:28:59;191.07;;;183.90;;
11767;SDS011;5941;57.652;12.514;2023-05-10T00:31:25;146.70;;;141.37;;
11767;SDS011;5941;57.652;12.514;2023-05-10T00:33:51;113.00;;;108.80;;
11767;SDS011;5941;57.652;12.514;2023-05-10T00:36:17;138.80;;;133.67;;
11767;SDS011;5941;57.652;12.514;2023-05-10T00:38:43;132.43;;;127.53;;
11767;SDS011;5941;57.652;12.514;2023-05-10T00:41:09;123.70;;;119.00;;
11767;SDS011;5941;57.652;12.514;2023-05-10T00:43:35;119.80;;;115.30;;
11767;SDS011;5941;57.652;12.514;2023-05-10T00:46:01;116.10;;;111.80;;
11767;SDS011;5941;57.652;12.514;2023-05-10T00:48:28;165.23;;;158.73;;
11767;SDS011;5941;57.652;12.514;2023-05-10T00:50:54;113.37;;;108.90;;
11767;SDS011;5941;57.652;12.514;2023-05-10T00:53:20;161.33;;;155.33;;
11767;SDS011;5941;57.652;12.514;2023-05-10T00:55:47;192.57;;;185.50;;
11767;SDS011;5941;57.652;12.514;2023-05-10T00:58:13;106.70;;;102.63;;
11767;SDS011;5941;57.652;12.514;2023-05-10T01:00:39;149.57;;;144.03;;
11767;SDS011;5941;57.652;12.514;2023-05-10T01:03:07;140.73;;;135.63;;
11767;SDS011;5941;57.652;12.514;2023-05-10T01:05:33;151.17;;;145.40;;
11767;SDS011;5941;57.652;12.514;2023-05-10T01:07:59;134.13;;;129.20;;
11767;SDS011;5941;57.652;12.514;2023-05-10T01:10:24;138.33;;;133.13;;
11767;SDS011;5941;57.652;12.514;2023-05-10T01:12:51;171.97;;;165.63;;
11767;SDS011;5941;57.652;12.514;2023-05-10T01:15:17;114.03;;;109.60;;
11767;SDS011;5941;57.652;12.514;2023-05-10T01:17:43;141.87;;;136.37;;
11767;SDS011;5941;57.652;12.514;2023-05-10T01:20:10;144.73;;;139.13;;
11767;SDS011;5941;57.652;12.514;2023-05-10T01:30:21;251.73;;;242.23;;
11767;SDS011;5941;57.652;12.514;2023-05-10T01:35:34;344.37;;;328.23;;
11767;SDS011;5941;57.652;12.514;2023-05-10T01:38:04;146.67;;;141.23;;
11767;SDS011;5941;57.652;12.514;2023-05-10T01:43:11;300.73;;;288.13;;
11767;SDS011;5941;57.652;12.514;2023-05-10T01:45:40;195.53;;;187.53;;
11767;SDS011;5941;57.652;12.514;2023-05-10T01:48:09;159.87;;;153.83;;
11767;SDS011;5941;57.652;12.514;2023-05-10T01:50:36;129.17;;;123.97;;
11767;SDS011;5941;57.652;12.514;2023-05-10T01:53:03;153.37;;;147.67;;
11767;SDS011;5941;57.652;12.514;2023-05-10T01:55:32;125.80;;;120.63;;
11767;SDS011;5941;57.652;12.514;2023-05-10T01:58:18;135.27;;;130.17;;
11767;SDS011;5941;57.652;12.514;2023-05-10T02:00:46;148.17;;;142.40;;
11767;SDS011;5941;57.652;12.514;2023-05-10T02:03:13;147.97;;;142.37;;
11767;SDS011;5941;57.652;12.514;2023-05-10T02:05:39;173.13;;;166.70;;
11767;SDS011;5941;57.652;12.514;2023-05-10T02:08:06;162.93;;;156.93;;
11767;SDS011;5941;57.652;12.514;2023-05-10T02:10:34;275.37;;;263.33;;
11767;SDS011;5941;57.652;12.514;2023-05-10T02:13:01;225.17;;;216.67;;
11767;SDS011;5941;57.652;12.514;2023-05-10T02:15:27;314.90;;;301.80;;
11767;SDS011;5941;57.652;12.514;2023-05-10T02:17:54;259.37;;;249.47;;
11767;SDS011;5941;57.652;12.514;2023-05-10T02:20:21;265.67;;;255.33;;
11767;SDS011;5941;57.652;12.514;2023-05-10T02:22:48;267.07;;;256.40;;
11767;SDS011;5941;57.652;12.514;2023-05-10T02:25:15;335.00;;;320.50;;
11767;SDS011;5941;57.652;12.514;2023-05-10T02:27:41;400.63;;;382.47;;
11767;SDS011;5941;57.652;12.514;2023-05-10T02:30:08;380.17;;;362.53;;
11767;SDS011;5941;57.652;12.514;2023-05-10T02:32:35;363.87;;;347.80;;
11767;SDS011;5941;57.652;12.514;2023-05-10T02:35:02;355.70;;;340.40;;
11767;SDS011;5941;57.652;12.514;2023-05-10T02:37:28;430.83;;;409.63;;
11767;SDS011;5941;57.652;12.514;2023-05-10T02:39:55;466.77;;;444.23;;
11767;SDS011;5941;57.652;12.514;2023-05-10T02:42:25;496.83;;;471.77;;
11767;SDS011;5941;57.652;12.514;2023-05-10T02:44:52;456.67;;;434.20;;
11767;SDS011;5941;57.652;12.514;2023-05-10T02:47:19;563.30;;;533.47;;
11767;SDS011;5941;57.652;12.514;2023-05-10T02:49:45;700.23;;;657.27;;
11767;SDS011;5941;57.652;12.514;2023-05-10T02:52:11;679.03;;;642.30;;
11767;SDS011;5941;57.652;12.514;2023-05-10T02:54:44;698.60;;;655.93;;
11767;SDS011;5941;57.652;12.514;2023-05-10T02:57:11;587.43;;;556.17;;
11767;SDS011;5941;57.652;12.514;2023-05-10T02:59:40;768.57;;;722.00;;
11767;SDS011;5941;57.652;12.514;2023-05-10T03:02:07;774.87;;;727.87;;
11767;SDS011;5941;57.652;12.514;2023-05-10T03:04:34;659.60;;;624.07;;
11767;SDS011;5941;57.652;12.514;2023-05-10T03:07:00;630.00;;;595.53;;
11767;SDS011;5941;57.652;12.514;2023-05-10T03:09:26;690.23;;;650.37;;
11767;SDS011;5941;57.652;12.514;2023-05-10T03:11:55;648.13;;;611.83;;
11767;SDS011;5941;57.652;12.514;2023-05-10T03:17:04;642.47;;;607.03;;
11767;SDS011;5941;57.652;12.514;2023-05-10T03:19:32;639.33;;;603.47;;
11767;SDS011;5941;57.652;12.514;2023-05-10T03:22:03;713.90;;;672.03;;
11767;SDS011;5941;57.652;12.514;2023-05-10T03:24:30;681.00;;;642.00;;
11767;SDS011;5941;57.652;12.514;2023-05-10T03:26:58;709.43;;;669.13;;
11767;SDS011;5941;57.652;12.514;2023-05-10T03:29:27;773.33;;;726.07;;
11767;SDS011;5941;57.652;12.514;2023-05-10T03:31:54;893.17;;;833.33;;
11767;SDS011;5941;57.652;12.514;2023-05-10T03:34:23;894.17;;;835.27;;
11767;SDS011;5941;57.652;12.514;2023-05-10T03:36:49;795.93;;;747.53;;
11767;SDS011;5941;57.652;12.514;2023-05-10T03:39:15;806.23;;;757.63;;
11767;SDS011;5941;57.652;12.514;2023-05-10T03:41:41;839.37;;;785.87;;
11767;SDS011;5941;57.652;12.514;2023-05-10T03:44:07;712.73;;;672.20;;
11767;SDS011;5941;57.652;12.514;2023-05-10T03:46:33;831.67;;;778.50;;
11767;SDS011;5941;57.652;12.514;2023-05-10T03:48:59;801.70;;;751.67;;
11767;SDS011;5941;57.652;12.514;2023-05-10T03:51:25;818.53;;;767.37;;
11767;SDS011;5941;57.652;12.514;2023-05-10T03:53:53;796.10;;;746.63;;
11767;SDS011;5941;57.652;12.514;2023-05-10T03:56:19;826.90;;;774.00;;
11767;SDS011;5941;57.652;12.514;2023-05-10T03:58:46;801.00;;;751.57;;
11767;SDS011;5941;57.652;12.514;2023-05-10T04:01:12;730.93;;;688.00;;
11767;SDS011;5941;57.652;12.514;2023-05-10T04:03:38;833.50;;;779.43;;
11767;SDS011;5941;57.652;12.514;2023-05-10T04:06:04;846.73;;;793.40;;
11767;SDS011;5941;57.652;12.514;2023-05-10T04:08:30;795.80;;;747.20;;
11767;SDS011;5941;57.652;12.514;2023-05-10T04:11:29;769.77;;;723.53;;
11767;SDS011;5941;57.652;12.514;2023-05-10T04:13:49;726.00;;;681.47;;
11767;SDS011;5941;57.652;12.514;2023-05-10T04:16:15;885.63;;;825.73;;
11767;SDS011;5941;57.652;12.514;2023-05-10T04:18:41;825.17;;;774.10;;
11767;SDS011;5941;57.652;12.514;2023-05-10T04:21:11;927.47;;;864.63;;
11767;SDS011;5941;57.652;12.514;2023-05-10T04:23:38;805.87;;;757.93;;
11767;SDS011;5941;57.652;12.514;2023-05-10T04:26:04;886.40;;;830.37;;
11767;SDS011;5941;57.652;12.514;2023-05-10T04:28:30;726.43;;;685.70;;
11767;SDS011;5941;57.652;12.514;2023-05-10T04:31:03;766.37;;;721.07;;
11767;SDS011;5941;57.652;12.514;2023-05-10T04:33:29;704.57;;;665.93;;
11767;SDS011;5941;57.652;12.514;2023-05-10T04:35:55;799.87;;;752.07;;
11767;SDS011;5941;57.652;12.514;2023-05-10T04:38:21;901.10;;;840.37;;
11767;SDS011;5941;57.652;12.514;2023-05-10T04:40:47;731.80;;;690.50;;
11767;SDS011;5941;57.652;12.514;2023-05-10T04:43:12;689.27;;;652.13;;
11767;SDS011;5941;57.652;12.514;2023-05-10T04:45:38;743.00;;;700.10;;
11767;SDS011;5941;57.652;12.514;2023-05-10T04:48:04;804.20;;;755.37;;
11767;SDS011;5941;57.652;12.514;2023-05-10T04:50:31;681.73;;;645.00;;
11767;SDS011;5941;57.652;12.514;2023-05-10T04:52:57;585.10;;;555.07;;
11767;SDS011;5941;57.652;12.514;2023-05-10T04:55:23;712.47;;;672.20;;
11767;SDS011;5941;57.652;12.514;2023-05-10T04:57:49;820.10;;;771.63;;
11767;SDS011;5941;57.652;12.514;2023-05-10T05:00:15;474.33;;;452.37;;
11767;SDS011;5941;57.652;12.514;2023-05-10T05:02:44;673.67;;;635.17;;
11767;SDS011;5941;57.652;12.514;2023-05-10T05:05:11;662.93;;;626.97;;
11767;SDS011;5941;57.652;12.514;2023-05-10T05:07:37;537.90;;;512.23;;
11767;SDS011;5941;57.652;12.514;2023-05-10T05:10:06;640.53;;;605.80;;
11767;SDS011;5941;57.652;12.514;2023-05-10T05:12:32;405.83;;;387.67;;
11767;SDS011;5941;57.652;12.514;2023-05-10T05:14:58;637.60;;;603.47;;
11767;SDS011;5941;57.652;12.514;2023-05-10T05:17:24;339.77;;;325.57;;
11767;SDS011;5941;57.652;12.514;2023-05-10T05:19:50;673.83;;;635.47;;
11767;SDS011;5941;57.652;12.514;2023-05-10T05:22:16;240.90;;;231.77;;
11767;SDS011;5941;57.652;12.514;2023-05-10T05:24:44;207.67;;;200.07;;
11767;SDS011;5941;57.652;12.514;2023-05-10T05:27:10;189.83;;;182.63;;
11767;SDS011;5941;57.652;12.514;2023-05-10T05:29:36;349.93;;;334.73;;
11767;SDS011;5941;57.652;12.514;2023-05-10T05:32:02;382.33;;;365.27;;
11767;SDS011;5941;57.652;12.514;2023-05-10T05:34:28;117.53;;;112.60;;
11767;SDS011;5941;57.652;12.514;2023-05-10T05:36:54;123.37;;;118.77;;
11767;SDS011;5941;57.652;12.514;2023-05-10T05:39:20;111.00;;;106.57;;
11767;SDS011;5941;57.652;12.514;2023-05-10T05:41:47;91.43;;;87.80;;
11767;SDS011;5941;57.652;12.514;2023-05-10T05:44:13;168.10;;;161.43;;
11767;SDS011;5941;57.652;12.514;2023-05-10T05:46:39;96.97;;;93.00;;
11767;SDS011;5941;57.652;12.514;2023-05-10T05:49:05;88.33;;;84.87;;
11767;SDS011;5941;57.652;12.514;2023-05-10T05:51:31;92.57;;;88.87;;
11767;SDS011;5941;57.652;12.514;2023-05-10T05:53:57;94.73;;;91.13;;
11767;SDS011;5941;57.652;12.514;2023-05-10T05:56:23;184.77;;;176.90;;
11767;SDS011;5941;57.652;12.514;2023-05-10T05:58:50;87.07;;;83.40;;
11767;SDS011;5941;57.652;12.514;2023-05-10T06:01:16;95.43;;;91.57;;
11767;SDS011;5941;57.652;12.514;2023-05-10T06:03:42;78.93;;;75.77;;
11767;SDS011;5941;57.652;12.514;2023-05-10T06:06:08;97.27;;;93.47;;
11767;SDS011;5941;57.652;12.514;2023-05-10T06:08:34;94.07;;;90.27;;
11767;SDS011;5941;57.652;12.514;2023-05-10T06:11:00;109.50;;;105.20;;
11767;SDS011;5941;57.652;12.514;2023-05-10T06:13:26;81.43;;;77.97;;
11767;SDS011;5941;57.652;12.514;2023-05-10T06:15:57;92.10;;;88.43;;
11767;SDS011;5941;57.652;12.514;2023-05-10T06:18:23;121.13;;;116.63;;
11767;SDS011;5941;57.652;12.514;2023-05-10T06:20:50;71.83;;;68.80;;
11767;SDS011;5941;57.652;12.514;2023-05-10T06:23:16;94.40;;;90.67;;
11767;SDS011;5941;57.652;12.514;2023-05-10T06:25:42;126.70;;;121.73;;
11767;SDS011;5941;57.652;12.514;2023-05-10T06:28:08;122.73;;;118.07;;
11767;SDS011;5941;57.652;12.514;2023-05-10T06:30:35;131.00;;;126.13;;
11767;SDS011;5941;57.652;12.514;2023-05-10T06:33:01;140.97;;;135.37;;
11767;SDS011;5941;57.652;12.514;2023-05-10T06:35:27;125.70;;;120.80;;
11767;SDS011;5941;57.652;12.514;2023-05-10T06:37:54;131.70;;;126.80;;
11767;SDS011;5941;57.652;12.514;2023-05-10T06:40:20;136.93;;;131.80;;
11767;SDS011;5941;57.652;12.514;2023-05-10T06:42:46;142.53;;;137.27;;
11767;SDS011;5941;57.652;12.514;2023-05-10T06:45:13;152.67;;;146.97;;
11767;SDS011;5941;57.652;12.514;2023-05-10T06:47:39;99.57;;;95.57;;
11767;SDS011;5941;57.652;12.514;2023-05-10T06:50:06;138.80;;;133.70;;
11767;SDS011;5941;57.652;12.514;2023-05-10T06:52:32;145.50;;;140.10;;
11767;SDS011;5941;57.652;12.514;2023-05-10T06:54:58;165.40;;;159.03;;
11767;SDS011;5941;57.652;12.514;2023-05-10T06:57:24;133.57;;;128.53;;
11767;SDS011;5941;57.652;12.514;2023-05-10T06:59:50;161.83;;;155.87;;
11767;SDS011;5941;57.652;12.514;2023-05-10T07:02:16;142.57;;;137.17;;
11767;SDS011;5941;57.652;12.514;2023-05-10T07:04:42;177.17;;;170.53;;
11767;SDS011;5941;57.652;12.514;2023-05-10T07:07:08;114.20;;;110.03;;
11767;SDS011;5941;57.652;12.514;2023-05-10T07:09:34;201.23;;;193.87;;
11767;SDS011;5941;57.652;12.514;2023-05-10T07:12:00;136.50;;;131.40;;
11767;SDS011;5941;57.652;12.514;2023-05-10T07:14:26;155.33;;;149.40;;
11767;SDS011;5941;57.652;12.514;2023-05-10T07:16:52;163.13;;;156.87;;
11767;SDS011;5941;57.652;12.514;2023-05-10T07:19:18;141.87;;;136.47;;
11767;SDS011;5941;57.652;12.514;2023-05-10T07:21:44;169.90;;;163.50;;
11767;SDS011;5941;57.652;12.514;2023-05-10T07:24:10;140.93;;;135.70;;
11767;SDS011;5941;57.652;12.514;2023-05-10T07:26:36;155.87;;;150.00;;
11767;SDS011;5941;57.652;12.514;2023-05-10T07:29:02;94.87;;;91.20;;
11767;SDS011;5941;57.652;12.514;2023-05-10T07:31:28;93.67;;;89.97;;
11767;SDS011;5941;57.652;12.514;2023-05-10T07:33:54;171.93;;;165.63;;
11767;SDS011;5941;57.652;12.514;2023-05-10T07:36:20;218.73;;;210.87;;
11767;SDS011;5941;57.652;12.514;2023-05-10T07:38:46;153.83;;;148.30;;
11767;SDS011;5941;57.652;12.514;2023-05-10T07:41:12;142.70;;;137.17;;
11767;SDS011;5941;57.652;12.514;2023-05-10T07:43:38;173.33;;;166.67;;
11767;SDS011;5941;57.652;12.514;2023-05-10T07:46:04;147.50;;;141.97;;
11767;SDS011;5941;57.652;12.514;2023-05-10T07:48:31;126.00;;;121.20;;
11767;SDS011;5941;57.652;12.514;2023-05-10T07:50:56;121.60;;;116.77;;
11767;SDS011;5941;57.652;12.514;2023-05-10T07:53:22;131.00;;;125.97;;
11767;SDS011;5941;57.652;12.514;2023-05-10T07:55:52;167.00;;;160.90;;
11767;SDS011;5941;57.652;12.514;2023-05-10T07:58:19;174.37;;;168.00;;
11767;SDS011;5941;57.652;12.514;2023-05-10T08:00:45;119.47;;;114.97;;
11767;SDS011;5941;57.652;12.514;2023-05-10T08:03:11;158.13;;;152.20;;
11767;SDS011;5941;57.652;12.514;2023-05-10T08:05:37;210.47;;;202.90;;
11767;SDS011;5941;57.652;12.514;2023-05-10T08:08:03;150.30;;;144.73;;
11767;SDS011;5941;57.652;12.514;2023-05-10T08:10:29;111.00;;;106.70;;
11767;SDS011;5941;57.652;12.514;2023-05-10T08:12:55;160.65;;;154.75;;
11767;SDS011;5941;57.652;12.514;2023-05-10T08:15:23;136.13;;;131.05;;
11767;SDS011;5941;57.652;12.514;2023-05-10T08:17:49;117.90;;;113.28;;
11767;SDS011;5941;57.652;12.514;2023-05-10T08:20:15;139.75;;;134.50;;
11767;SDS011;5941;57.652;12.514;2023-05-10T08:22:42;138.65;;;133.25;;
11767;SDS011;5941;57.652;12.514;2023-05-10T08:25:08;148.10;;;142.10;;
11767;SDS011;5941;57.652;12.514;2023-05-10T08:27:34;130.65;;;125.65;;
11767;SDS011;5941;57.652;12.514;2023-05-10T08:30:00;149.93;;;144.43;;
11767;SDS011;5941;57.652;12.514;2023-05-10T08:32:26;126.85;;;121.47;;
11767;SDS011;5941;57.652;12.514;2023-05-10T08:34:52;132.23;;;127.20;;
11767;SDS011;5941;57.652;12.514;2023-05-10T08:37:18;135.18;;;130.00;;
11767;SDS011;5941;57.652;12.514;2023-05-10T08:39:44;108.57;;;104.40;;
11767;SDS011;5941;57.652;12.514;2023-05-10T08:42:12;128.95;;;123.95;;
11767;SDS011;5941;57.652;12.514;2023-05-10T08:44:41;136.13;;;130.88;;
11767;SDS011;5941;57.652;12.514;2023-05-10T08:47:08;124.80;;;119.88;;
11767;SDS011;5941;57.652;12.514;2023-05-10T08:49:34;115.22;;;110.72;;
11767;SDS011;5941;57.652;12.514;2023-05-10T08:52:03;137.45;;;132.27;;
11767;SDS011;5941;57.652;12.514;2023-05-10T08:54:33;115.25;;;110.63;;
11767;SDS011;5941;57.652;12.514;2023-05-10T08:56:59;133.18;;;127.97;;
11767;SDS011;5941;57.652;12.514;2023-05-10T08:59:25;148.48;;;142.88;;
11767;SDS011;5941;57.652;12.514;2023-05-10T09:01:51;117.93;;;113.53;;
11767;SDS011;5941;57.652;12.514;2023-05-10T09:04:18;126.65;;;121.90;;
11767;SDS011;5941;57.652;12.514;2023-05-10T09:06:44;109.78;;;105.22;;
11767;SDS011;5941;57.652;12.514;2023-05-10T09:09:10;118.18;;;113.60;;
11767;SDS011;5941;57.652;12.514;2023-05-10T09:11:36;118.55;;;113.78;;
11767;SDS011;5941;57.652;12.514;2023-05-10T09:14:02;101.45;;;97.22;;
11767;SDS011;5941;57.652;12.514;2023-05-10T09:16:28;119.30;;;114.80;;
11767;SDS011;5941;57.652;12.514;2023-05-10T09:18:55;132.38;;;127.35;;
11767;SDS011;5941;57.652;12.514;2023-05-10T09:21:20;102.10;;;98.32;;
11767;SDS011;5941;57.652;12.514;2023-05-10T09:23:46;142.27;;;137.05;;
11767;SDS011;5941;57.652;12.514;2023-05-10T09:26:14;105.07;;;100.85;;
11767;SDS011;5941;57.652;12.514;2023-05-10T09:28:54;126.28;;;121.63;;
11767;SDS011;5941;57.652;12.514;2023-05-10T09:31:21;104.53;;;100.30;;
11767;SDS011;5941;57.652;12.514;2023-05-10T09:33:47;116.13;;;111.88;;
11767;SDS011;5941;57.652;12.514;2023-05-10T09:36:14;113.05;;;108.70;;
11767;SDS011;5941;57.652;12.514;2023-05-10T09:38:50;114.60;;;110.22;;
11767;SDS011;5941;57.652;12.514;2023-05-10T09:41:21;110.65;;;106.35;;
11767;SDS011;5941;57.652;12.514;2023-05-10T09:43:47;108.70;;;104.57;;
11767;SDS011;5941;57.652;12.514;2023-05-10T09:46:13;103.50;;;99.57;;
11767;SDS011;5941;57.652;12.514;2023-05-10T09:48:46;126.50;;;121.70;;
11767;SDS011;5941;57.652;12.514;2023-05-10T09:51:19;118.28;;;113.68;;
11767;SDS011;5941;57.652;12.514;2023-05-10T09:53:45;109.72;;;105.38;;
11767;SDS011;5941;57.652;12.514;2023-05-10T09:56:11;130.35;;;125.47;;
11767;SDS011;5941;57.652;12.514;2023-05-10T09:58:37;109.68;;;105.47;;
11767;SDS011;5941;57.652;12.514;2023-05-10T10:01:03;110.82;;;106.63;;
11767;SDS011;5941;57.652;12.514;2023-05-10T10:03:29;90.90;;;87.32;;
11767;SDS011;5941;57.652;12.514;2023-05-10T10:05:56;132.27;;;127.30;;
11767;SDS011;5941;57.652;12.514;2023-05-10T10:08:22;97.95;;;94.00;;
11767;SDS011;5941;57.652;12.514;2023-05-10T10:10:48;99.40;;;95.60;;
11767;SDS011;5941;57.652;12.514;2023-05-10T10:13:14;93.97;;;90.45;;
11767;SDS011;5941;57.652;12.514;2023-05-10T10:15:42;85.78;;;82.47;;
11767;SDS011;5941;57.652;12.514;2023-05-10T10:18:13;100.18;;;96.38;;
11767;SDS011;5941;57.652;12.514;2023-05-10T10:20:42;89.57;;;86.03;;
11767;SDS011;5941;57.652;12.514;2023-05-10T10:23:08;103.32;;;99.45;;
11767;SDS011;5941;57.652;12.514;2023-05-10T10:25:34;85.68;;;82.35;;
11767;SDS011;5941;57.652;12.514;2023-05-10T10:28:20;102.13;;;98.03;;
11767;SDS011;5941;57.652;12.514;2023-05-10T10:30:49;106.35;;;102.43;;
11767;SDS011;5941;57.652;12.514;2023-05-10T10:36:02;103.38;;;99.07;;
11767;SDS011;5941;57.652;12.514;2023-05-10T10:38:54;105.85;;;101.70;;
11767;SDS011;5941;57.652;12.514;2023-05-10T10:41:27;109.25;;;105.00;;
11767;SDS011;5941;57.652;12.514;2023-05-10T10:46:58;99.85;;;95.95;;
11767;SDS011;5941;57.652;12.514;2023-05-10T10:49:24;104.45;;;100.38;;
11767;SDS011;5941;57.652;12.514;2023-05-10T10:52:12;85.38;;;82.07;;
11767;SDS011;5941;57.652;12.514;2023-05-10T10:54:39;107.20;;;102.78;;
11767;SDS011;5941;57.652;12.514;2023-05-10T10:57:11;90.75;;;87.25;;
11767;SDS011;5941;57.652;12.514;2023-05-10T10:59:41;95.93;;;92.32;;
11767;SDS011;5941;57.652;12.514;2023-05-10T11:04:56;105.10;;;101.03;;
11767;SDS011;5941;57.652;12.514;2023-05-10T11:07:21;82.45;;;79.05;;
11767;SDS011;5941;57.652;12.514;2023-05-10T11:09:48;92.05;;;88.45;;
11767;SDS011;5941;57.652;12.514;2023-05-10T11:12:14;81.47;;;78.35;;
11767;SDS011;5941;57.652;12.514;2023-05-10T11:14:40;92.20;;;88.60;;
11767;SDS011;5941;57.652;12.514;2023-05-10T11:17:24;105.00;;;100.95;;
11767;SDS011;5941;57.652;12.514;2023-05-10T11:20:13;77.35;;;74.00;;
11767;SDS011;5941;57.652;12.514;2023-05-10T11:22:49;81.35;;;78.25;;
11767;SDS011;5941;57.652;12.514;2023-05-10T11:25:18;86.43;;;83.20;;
11767;SDS011;5941;57.652;12.514;2023-05-10T11:27:47;78.30;;;75.22;;
11767;SDS011;5941;57.652;12.514;2023-05-10T11:30:14;79.90;;;76.68;;
11767;SDS011;5941;57.652;12.514;2023-05-10T11:32:40;71.57;;;68.75;;
11767;SDS011;5941;57.652;12.514;2023-05-10T11:35:07;82.85;;;79.78;;
11767;SDS011;5941;57.652;12.514;2023-05-10T11:37:33;77.35;;;74.40;;
11767;SDS011;5941;57.652;12.514;2023-05-10T11:39:59;79.65;;;76.45;;
11767;SDS011;5941;57.652;12.514;2023-05-10T11:42:25;80.07;;;76.93;;
11767;SDS011;5941;57.652;12.514;2023-05-10T11:44:51;56.08;;;53.67;;
11767;SDS011;5941;57.652;12.514;2023-05-10T11:47:17;68.70;;;65.97;;
11767;SDS011;5941;57.652;12.514;2023-05-10T11:49:43;95.47;;;91.70;;
11767;SDS011;5941;57.652;12.514;2023-05-10T11:52:09;85.30;;;82.03;;
11767;SDS011;5941;57.652;12.514;2023-05-10T11:54:51;61.38;;;58.78;;
11767;SDS011;5941;57.652;12.514;2023-05-10T11:57:20;66.55;;;64.03;;
11767;SDS011;5941;57.652;12.514;2023-05-10T11:59:46;67.80;;;65.28;;
11767;SDS011;5941;57.652;12.514;2023-05-10T12:02:13;79.05;;;76.03;;
11767;SDS011;5941;57.652;12.514;2023-05-10T12:04:39;65.40;;;62.50;;
11767;SDS011;5941;57.652;12.514;2023-05-10T12:07:06;105.53;;;101.57;;
11767;SDS011;5941;57.652;12.514;2023-05-10T12:09:32;59.65;;;57.30;;
11767;SDS011;5941;57.652;12.514;2023-05-10T12:11:58;67.07;;;64.20;;
11767;SDS011;5941;57.652;12.514;2023-05-10T12:14:24;53.08;;;50.60;;
11767;SDS011;5941;57.652;12.514;2023-05-10T12:16:50;45.67;;;43.78;;
11767;SDS011;5941;57.652;12.514;2023-05-10T12:19:19;54.80;;;52.65;;
11767;SDS011;5941;57.652;12.514;2023-05-10T12:21:46;73.55;;;70.65;;
11767;SDS011;5941;57.652;12.514;2023-05-10T12:24:12;59.35;;;57.08;;
11767;SDS011;5941;57.652;12.514;2023-05-10T12:26:41;55.00;;;52.88;;
11767;SDS011;5941;57.652;12.514;2023-05-10T12:29:16;65.03;;;62.47;;
11767;SDS011;5941;57.652;12.514;2023-05-10T12:31:50;63.22;;;60.75;;
11767;SDS011;5941;57.652;12.514;2023-05-10T12:34:34;46.95;;;45.10;;
11767;SDS011;5941;57.652;12.514;2023-05-10T12:37:03;42.25;;;40.58;;
11767;SDS011;5941;57.652;12.514;2023-05-10T12:42:05;43.00;;;41.22;;
11767;SDS011;5941;57.652;12.514;2023-05-10T12:44:32;40.70;;;38.97;;
11767;SDS011;5941;57.652;12.514;2023-05-10T12:46:58;37.20;;;35.72;;
11767;SDS011;5941;57.652;12.514;2023-05-10T12:49:23;44.35;;;42.65;;
11767;SDS011;5941;57.652;12.514;2023-05-10T12:51:49;41.08;;;39.45;;
11767;SDS011;5941;57.652;12.514;2023-05-10T12:54:15;42.42;;;40.63;;
11767;SDS011;5941;57.652;12.514;2023-05-10T12:56:41;57.15;;;54.65;;
11767;SDS011;5941;57.652;12.514;2023-05-10T12:59:07;58.15;;;55.83;;
11767;SDS011;5941;57.652;12.514;2023-05-10T13:01:33;40.25;;;38.50;;
11767;SDS011;5941;57.652;12.514;2023-05-10T13:03:59;47.25;;;45.20;;
11767;SDS011;5941;57.652;12.514;2023-05-10T13:06:25;46.47;;;44.45;;
11767;SDS011;5941;57.652;12.514;2023-05-10T13:08:51;44.13;;;42.33;;
11767;SDS011;5941;57.652;12.514;2023-05-10T13:11:17;51.85;;;49.70;;
11767;SDS011;5941;57.652;12.514;2023-05-10T13:13:44;87.75;;;84.32;;
11767;SDS011;5941;57.652;12.514;2023-05-10T13:16:10;103.20;;;99.30;;
11767;SDS011;5941;57.652;12.514;2023-05-10T13:18:36;56.33;;;54.03;;
11767;SDS011;5941;57.652;12.514;2023-05-10T13:21:02;52.45;;;50.30;;
11767;SDS011;5941;57.652;12.514;2023-05-10T13:23:30;55.83;;;53.58;;
11767;SDS011;5941;57.652;12.514;2023-05-10T13:25:56;48.17;;;46.25;;
11767;SDS011;5941;57.652;12.514;2023-05-10T13:28:22;76.57;;;73.60;;
11767;SDS011;5941;57.652;12.514;2023-05-10T13:30:48;40.50;;;38.85;;
11767;SDS011;5941;57.652;12.514;2023-05-10T13:33:14;80.63;;;77.53;;
11767;SDS011;5941;57.652;12.514;2023-05-10T13:35:40;44.42;;;42.53;;
11767;SDS011;5941;57.652;12.514;2023-05-10T13:38:06;55.50;;;53.28;;
11767;SDS011;5941;57.652;12.514;2023-05-10T13:40:32;45.33;;;43.28;;
11767;SDS011;5941;57.652;12.514;2023-05-10T13:42:58;46.22;;;44.38;;
11767;SDS011;5941;57.652;12.514;2023-05-10T13:45:24;44.03;;;42.28;;
11767;SDS011;5941;57.652;12.514;2023-05-10T13:47:50;81.25;;;78.18;;
11767;SDS011;5941;57.652;12.514;2023-05-10T13:50:17;66.90;;;64.28;;
11767;SDS011;5941;57.652;12.514;2023-05-10T13:52:43;110.80;;;106.53;;
11767;SDS011;5941;57.652;12.514;2023-05-10T13:55:09;40.88;;;39.22;;
11767;SDS011;5941;57.652;12.514;2023-05-10T13:57:37;54.58;;;52.33;;
11767;SDS011;5941;57.652;12.514;2023-05-10T14:00:03;45.15;;;43.10;;
11767;SDS011;5941;57.652;12.514;2023-05-10T14:02:29;39.20;;;37.60;;
11767;SDS011;5941;57.652;12.514;2023-05-10T14:04:55;37.67;;;36.17;;
11767;SDS011;5941;57.652;12.514;2023-05-10T14:07:21;53.67;;;51.53;;
11767;SDS011;5941;57.652;12.514;2023-05-10T14:09:47;60.92;;;58.30;;
11767;SDS011;5941;57.652;12.514;2023-05-10T14:12:13;46.08;;;44.17;;
11767;SDS011;5941;57.652;12.514;2023-05-10T14:14:39;34.85;;;33.40;;
11767;SDS011;5941;57.652;12.514;2023-05-10T14:17:05;50.50;;;48.38;;
11767;SDS011;5941;57.652;12.514;2023-05-10T14:19:31;55.55;;;53.22;;
11767;SDS011;5941;57.652;12.514;2023-05-10T14:21:59;55.55;;;53.35;;
11767;SDS011;5941;57.652;12.514;2023-05-10T14:24:24;57.88;;;55.58;;
11767;SDS011;5941;57.652;12.514;2023-05-10T14:26:50;73.80;;;70.80;;
11767;SDS011;5941;57.652;12.514;2023-05-10T14:29:19;37.67;;;36.17;;
11767;SDS011;5941;57.652;12.514;2023-05-10T14:31:45;38.50;;;36.63;;